Time;durP1;ratioP1;P1;durP2;ratioP2;P2;SDS_P1;SDS_P2;PMS_P1;PMS_P2;Temp;Humidity;BMP_temperature;BMP_pressure;BME280_temperature;BME280_humidity;BME280_pressure;Samples;Min_cycle;Max_cycle;Signal;HPM_P1;HPM_P2
2022/10/17 00:02:56;;;;;;;5.20;4.70;;;;;;;12.86;100.00;100605.19;10581294;28;20469;-68
2022/10/17 00:07:57;;;;;;;4.60;4.20;;;;;;;12.90;100.00;100596.25;10580775;28;20070;-68
2022/10/17 00:12:59;;;;;;;4.13;3.72;;;;;;;13.02;100.00;100603.78;10581665;28;20067;-69
2022/10/17 00:18:01;;;;;;;3.92;3.40;;;;;;;12.81;100.00;100602.69;10589091;28;20131;-68
2022/10/17 00:23:02;;;;;;;5.90;3.90;;;;;;;12.83;100.00;100605.28;10588384;28;20050;-69
2022/10/17 00:28:04;;;;;;;3.92;3.42;;;;;;;12.87;100.00;100605.13;10589756;28;20051;-70
2022/10/17 00:33:07;;;;;;;3.47;3.28;;;;;;;12.66;100.00;100603.19;10586580;28;20241;-70
2022/10/17 00:38:08;;;;;;;4.40;3.50;;;;;;;12.75;100.00;100607.28;10586236;28;20052;-69
2022/10/17 00:43:16;;;;;;;7.05;3.67;;;;;;;12.52;100.00;100603.59;10587421;28;20040;-69
2022/10/17 00:48:19;;;;;;;6.22;3.80;;;;;;;12.56;100.00;100607.88;10587254;28;20422;-69
2022/10/17 00:53:23;;;;;;;3.53;3.20;;;;;;;12.44;100.00;100607.38;10586983;28;20040;-69
2022/10/17 00:58:25;;;;;;;3.80;2.80;;;;;;;12.37;100.00;100611.97;10586843;28;20044;-69
2022/10/17 01:03:27;;;;;;;3.47;3.03;;;;;;;12.38;100.00;100609.28;10587160;28;20035;-69
2022/10/17 01:08:29;;;;;;;3.70;3.28;;;;;;;12.37;100.00;100604.06;10586466;28;20051;-69
2022/10/17 01:13:52;;;;;;;4.35;3.85;;;;;;;12.38;100.00;100614.56;10585132;28;20040;-69
2022/10/17 01:19:19;;;;;;;5.50;3.15;;;;;;;12.49;100.00;100606.34;10586201;28;20035;-69
2022/10/17 01:24:44;;;;;;;5.03;4.63;;;;;;;12.55;100.00;100602.66;10584513;28;20048;-69
2022/10/17 01:29:56;;;;;;;7.57;6.63;;;;;;;12.61;100.00;100598.03;10584544;28;20032;-69
2022/10/17 01:35:09;;;;;;;12.02;10.50;;;;;;;12.71;100.00;100603.91;10585963;28;20405;-69
2022/10/17 01:40:26;;;;;;;13.68;12.63;;;;;;;12.89;100.00;100602.47;10585566;28;20166;-69
2022/10/17 01:45:53;;;;;;;16.42;15.02;;;;;;;13.12;100.00;100615.75;10584444;28;20419;-69
2022/10/17 01:51:10;;;;;;;18.42;16.92;;;;;;;13.11;100.00;100605.25;10585117;28;20040;-69
2022/10/17 01:56:15;;;;;;;17.67;16.08;;;;;;;13.23;100.00;100604.88;10583123;28;20595;-69
2022/10/17 02:01:20;;;;;;;18.58;16.58;;;;;;;13.42;100.00;100594.56;10584689;27;20485;-69
2022/10/17 02:06:21;;;;;;;18.73;16.98;;;;;;;13.60;100.00;100590.41;10582828;28;20047;-69
2022/10/17 02:11:25;;;;;;;20.02;18.40;;;;;;;13.68;100.00;100590.13;10583072;28;20135;-69
2022/10/17 02:16:33;;;;;;;21.40;19.50;;;;;;;13.68;100.00;100584.84;10583724;28;20044;-69
2022/10/17 02:21:55;;;;;;;21.17;18.95;;;;;;;13.69;100.00;100591.88;10584693;28;20071;-69
2022/10/17 02:27:10;;;;;;;22.33;20.42;;;;;;;13.74;100.00;100587.28;10583182;28;20044;-69
2022/10/17 02:32:48;;;;;;;21.92;19.85;;;;;;;13.57;100.00;100591.38;10581812;28;20032;-69
2022/10/17 02:37:54;;;;;;;22.35;20.55;;;;;;;13.73;100.00;100588.22;10582810;28;20055;-69
2022/10/17 02:42:58;;;;;;;22.60;19.58;;;;;;;13.60;100.00;100590.41;10564850;28;20382;-69
2022/10/17 02:48:18;;;;;;;21.63;19.92;;;;;;;13.51;100.00;100590.75;10581437;28;20044;-69
2022/10/17 02:53:33;;;;;;;20.33;18.73;;;;;;;13.39;100.00;100594.66;10580938;28;20036;-70
2022/10/17 02:58:36;;;;;;;20.25;18.48;;;;;;;13.38;100.00;100593.81;10581170;28;20048;-69
2022/10/17 03:03:38;;;;;;;19.65;18.10;;;;;;;13.40;100.00;100591.09;10580916;28;20447;-70
2022/10/17 03:08:39;;;;;;;21.70;19.95;;;;;;;13.41;100.00;100597.25;10581968;28;20047;-70
2022/10/17 03:13:41;;;;;;;21.73;20.13;;;;;;;13.51;100.00;100593.38;10582498;28;20044;-71
2022/10/17 03:18:43;;;;;;;20.50;19.02;;;;;;;13.34;100.00;100581.63;10564861;28;20051;-69
2022/10/17 03:23:50;;;;;;;20.77;19.05;;;;;;;13.34;100.00;100584.25;10583088;28;20126;-69
2022/10/17 03:28:55;;;;;;;18.15;16.85;;;;;;;13.32;100.00;100598.41;10583341;28;20040;-70
2022/10/17 03:33:57;;;;;;;21.15;19.40;;;;;;;13.34;100.00;100592.19;10583088;28;20040;-70
2022/10/17 03:38:59;;;;;;;24.85;22.70;;;;;;;13.47;100.00;100607.59;10583248;28;20051;-70
2022/10/17 03:44:01;;;;;;;26.70;24.35;;;;;;;13.41;100.00;100602.53;10582785;28;20039;-69
2022/10/17 03:49:04;;;;;;;29.05;26.17;;;;;;;13.54;100.00;100609.09;10588000;28;20035;-69
2022/10/17 03:54:06;;;;;;;29.30;26.55;;;;;;;13.48;100.00;100609.31;10590351;28;20039;-69
2022/10/17 03:59:12;;;;;;;28.95;26.30;;;;;;;13.52;100.00;100611.81;10590963;28;20044;-70
2022/10/17 04:04:14;;;;;;;27.73;25.25;;;;;;;13.55;100.00;100610.84;10590361;28;20450;-69
2022/10/17 04:09:15;;;;;;;28.90;26.25;;;;;;;13.56;100.00;100624.00;10590433;28;20136;-70
2022/10/17 04:14:26;;;;;;;30.70;27.85;;;;;;;13.60;100.00;100633.53;10591869;28;20456;-69
2022/10/17 04:19:28;;;;;;;28.83;26.15;;;;;;;13.56;100.00;100636.34;10589195;28;20051;-70
2022/10/17 04:24:30;;;;;;;33.65;29.85;;;;;;;13.52;100.00;100642.66;10589170;28;20055;-70
2022/10/17 04:29:52;;;;;;;34.53;30.60;;;;;;;13.58;100.00;100631.84;10579212;28;20497;-70
2022/10/17 04:34:57;;;;;;;34.45;31.33;;;;;;;13.67;100.00;100633.31;10590367;28;20496;-69
2022/10/17 04:40:01;;;;;;;36.03;32.40;;;;;;;13.69;100.00;100634.13;10588728;28;20047;-69
2022/10/17 04:45:06;;;;;;;38.65;34.63;;;;;;;13.75;100.00;100637.41;10590303;28;20105;-71
2022/10/17 04:50:09;;;;;;;43.60;36.40;;;;;;;13.69;100.00;100642.94;10589987;28;20535;-70
2022/10/17 04:55:13;;;;;;;55.65;38.58;;;;;;;13.62;100.00;100651.97;10590244;28;20443;-70
2022/10/17 05:00:16;;;;;;;50.10;37.08;;;;;;;13.78;100.00;100661.09;10587678;28;20445;-69
2022/10/17 05:05:47;;;;;;;49.05;38.47;;;;;;;13.68;100.00;100657.06;10583660;28;20390;-70
2022/10/17 05:10:49;;;;;;;47.63;39.55;;;;;;;13.63;100.00;100661.59;10570919;28;20047;-70
2022/10/17 05:15:50;;;;;;;49.80;37.78;;;;;;;13.73;100.00;100662.19;10587358;28;20039;-70
2022/10/17 05:20:53;;;;;;;48.50;38.50;;;;;;;13.69;100.00;100663.19;10590986;28;20039;-70
2022/10/17 05:25:55;;;;;;;43.10;37.92;;;;;;;13.62;100.00;100671.31;10589107;28;20505;-69
2022/10/17 05:31:02;;;;;;;49.75;38.08;;;;;;;13.61;100.00;100679.31;10589662;28;20092;-69
2022/10/17 05:36:06;;;;;;;52.33;40.43;;;;;;;13.62;100.00;100671.31;10591400;28;20040;-69
2022/10/17 05:41:09;;;;;;;47.05;39.20;;;;;;;13.62;100.00;100684.53;10590171;28;20386;-69
2022/10/17 05:46:12;;;;;;;51.95;38.88;;;;;;;13.65;100.00;100688.00;10589285;28;20561;-70
2022/10/17 05:51:14;;;;;;;45.70;39.17;;;;;;;13.56;100.00;100687.38;10589777;28;20043;-69
2022/10/17 05:56:19;;;;;;;47.53;39.63;;;;;;;13.60;100.00;100689.00;10590055;27;20065;-69
2022/10/17 06:01:23;;;;;;;52.72;40.67;;;;;;;13.75;100.00;100698.19;10590601;28;20050;-70
2022/10/17 06:06:25;;;;;;;49.60;39.15;;;;;;;13.66;100.00;100698.50;10591332;28;20044;-70
2022/10/17 06:11:27;;;;;;;56.67;41.75;;;;;;;13.78;100.00;100706.00;10591699;28;20044;-69
2022/10/17 06:16:30;;;;;;;54.67;40.75;;;;;;;13.87;100.00;100710.13;10595768;28;20046;-70
2022/10/17 06:21:35;;;;;;;48.83;40.47;;;;;;;13.88;100.00;100722.41;10593344;28;20028;-69
2022/10/17 06:26:43;;;;;;;51.63;42.55;;;;;;;13.90;100.00;100725.88;10577444;28;20047;-69
2022/10/17 06:31:47;;;;;;;45.92;39.92;;;;;;;13.87;100.00;100726.84;10589141;28;20039;-69
2022/10/17 06:36:50;;;;;;;50.85;40.17;;;;;;;13.87;100.00;100742.69;10589641;28;20047;-70
2022/10/17 06:41:53;;;;;;;44.80;38.60;;;;;;;14.02;100.00;100738.66;10589205;28;20109;-70
2022/10/17 06:47:06;;;;;;;47.13;37.58;;;;;;;14.23;100.00;100744.13;10592949;28;20048;-69
2022/10/17 06:52:09;;;;;;;42.80;38.22;;;;;;;14.15;100.00;100744.38;10592349;28;20040;-70
2022/10/17 06:57:23;;;;;;;42.42;37.85;;;;;;;14.19;100.00;100745.13;10588845;28;20067;-69
2022/10/17 07:02:54;;;;;;;40.20;35.92;;;;;;;14.38;100.00;100755.00;10589118;28;20035;-69
2022/10/17 07:07:55;;;;;;;40.15;35.97;;;;;;;14.39;100.00;100766.47;10584246;28;20078;-69
2022/10/17 07:12:57;;;;;;;44.33;35.78;;;;;;;14.51;100.00;100767.81;10584692;28;20039;-70
2022/10/17 07:17:59;;;;;;;40.50;36.30;;;;;;;14.60;100.00;100773.63;10583952;28;20142;-69
2022/10/17 07:23:01;;;;;;;39.63;35.60;;;;;;;14.75;100.00;100769.56;10585313;28;20044;-69
2022/10/17 07:28:04;;;;;;;41.80;36.80;;;;;;;14.87;100.00;100766.47;10593444;28;20058;-70
2022/10/17 07:33:06;;;;;;;44.35;37.85;;;;;;;15.01;100.00;100768.59;10592413;28;20063;-70
2022/10/17 07:38:08;;;;;;;44.05;37.17;;;;;;;15.07;100.00;100772.78;10592136;28;20047;-69
2022/10/17 07:43:10;;;;;;;39.95;36.30;;;;;;;15.28;100.00;100777.25;10591925;28;20036;-69
2022/10/17 07:48:12;;;;;;;37.30;33.45;;;;;;;15.55;100.00;100777.06;10591576;28;20051;-69
2022/10/17 07:53:14;;;;;;;37.92;33.80;;;;;;;15.79;100.00;100780.53;10591107;28;20040;-68
2022/10/17 07:58:16;;;;;;;37.15;33.53;;;;;;;15.93;100.00;100780.81;10593623;28;20042;-70
2022/10/17 08:03:17;;;;;;;34.65;31.70;;;;;;;16.25;100.00;100781.25;10593736;28;20040;-69
2022/10/17 08:08:19;;;;;;;35.05;31.92;;;;;;;16.31;100.00;100783.63;10581782;28;20047;-68
2022/10/17 08:13:22;;;;;;;33.95;30.50;;;;;;;16.36;100.00;100781.63;10593718;28;20480;-70
2022/10/17 08:18:23;;;;;;;33.45;30.40;;;;;;;16.59;100.00;100781.47;10548696;28;20071;-69
2022/10/17 08:23:25;;;;;;;35.20;31.50;;;;;;;16.68;100.00;100789.94;10548882;28;20091;-69
2022/10/17 08:28:27;;;;;;;32.97;30.15;;;;;;;16.82;99.61;100784.91;10548674;28;20048;-69
2022/10/17 08:33:29;;;;;;;32.47;29.50;;;;;;;16.82;100.00;100779.59;10548017;28;20043;-69
2022/10/17 08:38:32;;;;;;;32.25;29.27;;;;;;;16.90;98.04;100780.09;10556683;28;20446;-69
2022/10/17 08:43:42;;;;;;;31.27;28.60;;;;;;;17.06;97.27;100778.47;10592534;28;20096;-70
2022/10/17 08:48:46;;;;;;;31.90;29.15;;;;;;;17.08;96.54;100773.94;10591087;28;20043;-69
2022/10/17 08:54:02;;;;;;;32.22;29.15;;;;;;;17.25;94.92;100785.56;10590159;28;20036;-69
2022/10/17 08:59:09;;;;;;;33.47;30.17;;;;;;;17.37;94.40;100780.53;10587780;28;20063;-69
2022/10/17 09:04:17;;;;;;;29.25;26.85;;;;;;;17.44;94.92;100786.41;10547459;28;20040;-69
2022/10/17 09:09:44;;;;;;;28.08;26.10;;;;;;;17.72;92.55;100777.09;10548116;28;20054;-69
2022/10/17 09:14:56;;;;;;;30.23;27.58;;;;;;;17.87;90.48;100779.00;10548268;28;20086;-70
2022/10/17 09:20:03;;;;;;;30.67;28.30;;;;;;;17.84;89.80;100781.81;10546658;28;20060;-70
2022/10/17 09:25:10;;;;;;;28.55;26.48;;;;;;;17.83;89.92;100780.09;10551038;28;20096;-70
2022/10/17 09:30:18;;;;;;;29.42;26.73;;;;;;;17.86;91.11;100777.28;10588420;28;20139;-69
2022/10/17 09:35:41;;;;;;;31.95;28.73;;;;;;;17.95;89.72;100773.31;10586870;28;20048;-69
2022/10/17 09:40:43;;;;;;;29.90;27.55;;;;;;;18.18;88.10;100766.81;10587301;28;20036;-69
2022/10/17 09:46:12;;;;;;;31.23;28.35;;;;;;;18.30;86.80;100771.50;10584356;28;20104;-69
2022/10/17 09:51:15;;;;;;;29.58;27.05;;;;;;;18.27;87.29;100763.66;10587090;28;20031;-69
2022/10/17 09:56:26;;;;;;;28.88;26.55;;;;;;;18.72;84.72;100764.88;10585268;28;20382;-69
2022/10/17 10:01:30;;;;;;;28.00;25.10;;;;;;;19.05;82.43;100771.03;10585492;27;20040;-69
2022/10/17 10:06:31;;;;;;;28.52;25.90;;;;;;;19.37;78.43;100771.03;10585683;28;20075;-69
2022/10/17 10:11:54;;;;;;;25.85;23.90;;;;;;;19.64;77.16;100769.47;10585530;28;20490;-69
2022/10/17 10:16:56;;;;;;;26.85;24.38;;;;;;;20.09;76.77;100775.72;10585045;28;20126;-70
2022/10/17 10:22:16;;;;;;;24.63;22.60;;;;;;;20.54;74.19;100767.72;10582981;28;20062;-70
2022/10/17 10:27:18;;;;;;;25.20;22.80;;;;;;;20.83;72.35;100772.13;10584544;28;20066;-70
2022/10/17 10:32:26;;;;;;;24.05;22.10;;;;;;;21.04;70.29;100769.91;10584937;28;20047;-70
2022/10/17 10:37:37;;;;;;;21.83;20.50;;;;;;;21.35;69.42;100771.50;10583513;28;20115;-69
2022/10/17 10:42:39;;;;;;;21.10;19.35;;;;;;;21.84;67.22;100754.88;10584379;28;20036;-69
2022/10/17 10:47:50;;;;;;;21.55;20.00;;;;;;;22.29;64.85;100751.88;10559725;28;20052;-69
2022/10/17 10:53:45;;;;;;;20.08;18.40;;;;;;;22.44;63.67;100756.16;10539395;28;20075;-70
2022/10/17 10:58:57;;;;;;;18.25;16.92;;;;;;;22.64;60.72;100769.03;10456128;28;20055;-70
2022/10/17 11:04:19;;;;;;;17.17;15.98;;;;;;;22.84;57.57;100761.38;10478102;28;20056;-70
2022/10/17 11:09:43;;;;;;;17.13;15.73;;;;;;;22.89;59.16;100765.50;10494552;28;20067;-70
2022/10/17 11:14:54;;;;;;;16.90;15.68;;;;;;;23.04;57.41;100757.31;10493868;28;20061;-70
2022/10/17 11:20:08;;;;;;;16.58;15.55;;;;;;;23.27;55.33;100759.16;10493142;28;20084;-70
2022/10/17 11:25:27;;;;;;;16.27;15.07;;;;;;;23.55;55.07;100747.28;10494903;28;20044;-70
2022/10/17 11:30:40;;;;;;;16.48;15.43;;;;;;;23.58;56.87;100746.16;10533465;28;20160;-70
2022/10/17 11:35:46;;;;;;;18.15;16.70;;;;;;;23.56;55.57;100738.25;10540360;28;20122;-70
2022/10/17 11:40:53;;;;;;;16.13;15.07;;;;;;;23.46;55.84;100734.50;10539324;28;20051;-70
2022/10/17 11:46:04;;;;;;;17.60;16.40;;;;;;;23.46;55.28;100730.97;10539428;28;20127;-70
2022/10/17 11:51:12;;;;;;;17.13;15.52;;;;;;;23.60;54.72;100723.63;10539621;28;20078;-70
2022/10/17 11:56:57;;;;;;;16.30;15.10;;;;;;;23.24;55.86;100721.88;10539090;28;20052;-70
2022/10/17 12:02:15;;;;;;;15.27;14.27;;;;;;;22.67;57.63;100709.84;10539488;28;20040;-70
2022/10/17 12:07:33;;;;;;;17.42;16.33;;;;;;;22.65;57.91;100698.38;10539138;28;20324;-70
2022/10/17 12:12:36;;;;;;;17.25;16.13;;;;;;;22.53;58.20;100698.38;10545539;28;20047;-71
2022/10/17 12:17:42;;;;;;;16.63;15.48;;;;;;;22.43;58.79;100684.81;10545502;28;20052;-70
2022/10/17 12:22:48;;;;;;;17.42;16.20;;;;;;;22.16;61.35;100667.03;10545043;28;20469;-70
2022/10/17 12:27:50;;;;;;;17.98;16.52;;;;;;;22.21;61.27;100666.72;10546697;28;20485;-71
2022/10/17 12:32:53;;;;;;;16.40;14.63;;;;;;;22.36;60.57;100665.66;10545574;28;20044;-70
2022/10/17 12:38:17;;;;;;;16.50;15.35;;;;;;;22.45;59.12;100664.13;10545911;28;20127;-70
2022/10/17 12:43:27;;;;;;;16.77;15.30;;;;;;;22.50;59.62;100656.63;10545519;28;20040;-70
2022/10/17 12:48:58;;;;;;;16.33;15.13;;;;;;;22.51;59.91;100652.97;10545036;28;20040;-70
2022/10/17 12:54:13;;;;;;;15.65;14.55;;;;;;;22.47;58.98;100638.06;10544702;28;20123;-70
2022/10/17 12:59:24;;;;;;;14.70;13.80;;;;;;;22.44;59.31;100646.31;10544185;28;20047;-70
2022/10/17 13:04:28;;;;;;;15.18;14.07;;;;;;;22.34;59.61;100643.44;10544125;28;20032;-70
2022/10/17 13:09:32;;;;;;;15.63;14.52;;;;;;;22.41;59.07;100638.53;10543974;28;20471;-70
2022/10/17 13:14:34;;;;;;;15.23;14.05;;;;;;;22.41;58.86;100642.06;10544096;28;20074;-70
2022/10/17 13:19:41;;;;;;;13.82;12.90;;;;;;;22.36;58.54;100644.22;10547708;28;20039;-70
2022/10/17 13:24:44;;;;;;;13.15;12.32;;;;;;;22.41;57.81;100641.22;10549077;28;20071;-70
2022/10/17 13:29:46;;;;;;;14.88;13.77;;;;;;;22.51;57.46;100642.25;10547352;28;20052;-70
2022/10/17 13:35:05;;;;;;;14.95;13.98;;;;;;;22.34;58.00;100634.56;10547956;28;20061;-70
2022/10/17 13:40:18;;;;;;;15.52;14.13;;;;;;;22.33;58.13;100646.25;10547918;28;20499;-71
2022/10/17 13:45:47;;;;;;;14.93;14.02;;;;;;;22.19;58.43;100644.56;10550349;28;20048;-71
2022/10/17 13:50:52;;;;;;;15.25;14.05;;;;;;;21.98;59.00;100644.19;10548279;28;20040;-70
2022/10/17 13:56:16;;;;;;;15.68;14.55;;;;;;;22.13;57.62;100648.53;10544895;28;20493;-71
2022/10/17 14:01:33;;;;;;;15.95;14.75;;;;;;;22.05;57.87;100641.97;10545126;28;20105;-70
2022/10/17 14:06:46;;;;;;;15.07;14.07;;;;;;;21.86;58.84;100653.06;10545914;28;20044;-70
2022/10/17 14:12:09;;;;;;;17.52;16.42;;;;;;;21.72;59.04;100664.72;10545568;28;20036;-70
2022/10/17 14:17:13;;;;;;;16.90;15.75;;;;;;;21.51;60.83;100658.16;10541895;28;20047;-70
2022/10/17 14:22:16;;;;;;;17.48;15.88;;;;;;;21.44;60.35;100657.72;10542372;28;20078;-70
2022/10/17 14:27:37;;;;;;;17.33;15.80;;;;;;;21.41;60.09;100653.41;10542377;28;20509;-70
2022/10/17 14:32:41;;;;;;;17.08;15.95;;;;;;;21.12;62.06;100649.13;10543006;28;20040;-70
2022/10/17 14:37:47;;;;;;;17.88;16.58;;;;;;;21.06;62.37;100658.41;10541256;28;20079;-71
2022/10/17 14:42:51;;;;;;;18.10;16.80;;;;;;;20.96;63.04;100659.13;10541757;28;20096;-70
2022/10/17 14:47:59;;;;;;;20.23;18.30;;;;;;;20.89;62.87;100658.63;10541511;28;20039;-71
2022/10/17 14:53:03;;;;;;;19.13;17.63;;;;;;;20.83;62.58;100661.72;10541020;28;20050;-71
2022/10/17 14:58:26;;;;;;;19.58;18.02;;;;;;;20.57;63.73;100664.22;10540849;28;20059;-70
2022/10/17 15:03:28;;;;;;;19.13;17.83;;;;;;;20.62;63.27;100675.47;10544804;28;20089;-70
2022/10/17 15:08:30;;;;;;;20.75;19.33;;;;;;;20.51;64.21;100677.13;10558829;28;20035;-70
2022/10/17 15:13:32;;;;;;;20.45;19.05;;;;;;;20.30;65.56;100689.97;10554547;28;20044;-71
2022/10/17 15:18:41;;;;;;;19.77;18.23;;;;;;;20.25;65.80;100686.72;10586167;28;20155;-71
2022/10/17 15:23:43;;;;;;;21.60;19.50;;;;;;;20.19;65.98;100684.41;10577823;28;20511;-71
2022/10/17 15:28:46;;;;;;;23.05;20.92;;;;;;;19.93;66.98;100684.22;10579957;28;20054;-71
2022/10/17 15:33:49;;;;;;;23.80;21.80;;;;;;;19.77;67.45;100688.75;10586418;28;20071;-71
2022/10/17 15:38:54;;;;;;;26.90;24.48;;;;;;;19.63;68.33;100692.22;10586963;28;20055;-71
2022/10/17 15:43:56;;;;;;;24.77;22.98;;;;;;;19.30;70.23;100700.34;10586985;28;20035;-72
2022/10/17 15:49:06;;;;;;;24.23;22.38;;;;;;;18.99;72.23;100707.44;10593890;28;20039;-70
2022/10/17 15:54:08;;;;;;;25.55;23.50;;;;;;;19.33;70.88;100701.03;10595987;28;20495;-72
2022/10/17 15:59:14;;;;;;;24.13;22.38;;;;;;;18.82;73.84;100705.69;10593457;28;20092;-70
2022/10/17 16:04:17;;;;;;;25.53;23.90;;;;;;;18.73;73.94;100708.03;10590291;28;20043;-72
2022/10/17 16:09:18;;;;;;;27.30;25.15;;;;;;;18.39;76.05;100709.81;10592343;28;20062;-71
2022/10/17 16:14:20;;;;;;;25.23;23.20;;;;;;;18.20;77.05;100715.25;10591596;28;20118;-71
2022/10/17 16:19:22;;;;;;;23.25;21.75;;;;;;;17.94;76.51;100732.56;10591073;28;20040;-71
2022/10/17 16:24:24;;;;;;;25.08;23.27;;;;;;;18.03;77.14;100725.91;10589193;28;20127;-71
2022/10/17 16:29:26;;;;;;;26.55;24.33;;;;;;;17.95;77.68;100739.59;10599707;22;20036;-68
2022/10/17 16:34:29;;;;;;;27.85;25.55;;;;;;;17.78;79.64;100744.91;10589084;28;20071;-68
2022/10/17 16:39:31;;;;;;;27.08;25.05;;;;;;;17.56;80.53;100743.28;10588445;28;20082;-68
2022/10/17 16:44:33;;;;;;;28.98;26.35;;;;;;;17.41;81.83;100738.72;10589853;28;20044;-69
2022/10/17 16:49:34;;;;;;;27.25;25.25;;;;;;;17.43;82.44;100743.97;10589098;28;20070;-68
2022/10/17 16:54:36;;;;;;;27.13;25.20;;;;;;;17.25;83.10;100751.03;10587384;28;20043;-68
2022/10/17 16:59:38;;;;;;;29.83;27.58;;;;;;;17.29;83.59;100757.91;10588139;28;20051;-69
2022/10/17 17:04:39;;;;;;;30.00;27.35;;;;;;;17.43;82.66;100750.13;10589273;28;20093;-69
2022/10/17 17:09:41;;;;;;;31.33;28.60;;;;;;;17.45;81.84;100756.25;10588328;28;20035;-69
2022/10/17 17:14:42;;;;;;;28.80;26.65;;;;;;;17.16;83.59;100760.28;10587719;28;20086;-70
2022/10/17 17:19:44;;;;;;;29.40;27.23;;;;;;;17.00;85.02;100770.78;10588093;28;20063;-68
2022/10/17 17:24:46;;;;;;;30.17;27.77;;;;;;;17.07;84.42;100768.69;10587234;28;20035;-68
2022/10/17 17:29:47;;;;;;;29.25;26.67;;;;;;;16.94;85.77;100770.19;10630534;27;20420;-68
2022/10/17 17:34:49;;;;;;;30.23;27.75;;;;;;;16.96;85.77;100773.66;10611510;27;20043;-69
2022/10/17 17:39:51;;;;;;;30.77;28.40;;;;;;;16.71;86.87;100777.41;10629580;27;20042;-69
2022/10/17 17:44:52;;;;;;;30.52;28.08;;;;;;;16.89;86.51;100779.25;10630103;27;20432;-69
2022/10/17 17:49:54;;;;;;;30.50;27.92;;;;;;;16.87;87.29;100785.56;10611363;27;20043;-69
2022/10/17 17:54:55;;;;;;;30.98;28.35;;;;;;;16.51;89.66;100786.28;10628972;27;20388;-69
2022/10/17 17:59:57;;;;;;;31.27;28.75;;;;;;;16.12;91.32;100789.72;10628372;27;20051;-69
2022/10/17 18:04:58;;;;;;;31.80;28.83;;;;;;;15.91;93.32;100777.38;10610272;27;20043;-68
2022/10/17 18:10:00;;;;;;;34.83;31.67;;;;;;;16.08;94.22;100774.00;10609164;27;20054;-69
2022/10/17 18:15:03;;;;;;;33.72;30.52;;;;;;;16.02;93.43;100779.56;10609362;27;20063;-69
2022/10/17 18:20:05;;;;;;;36.40;32.47;;;;;;;15.83;94.18;100777.69;10608519;27;20064;-69
2022/10/17 18:25:07;;;;;;;38.75;34.42;;;;;;;15.86;95.72;100772.25;10627954;27;20476;-68
2022/10/17 18:30:09;;;;;;;34.58;31.60;;;;;;;15.79;95.61;100781.38;10609123;27;20108;-68
2022/10/17 18:35:10;;;;;;;37.75;33.92;;;;;;;15.76;97.35;100783.28;10627363;27;20047;-69
2022/10/17 18:40:12;;;;;;;37.08;33.47;;;;;;;15.50;97.64;100779.91;10628025;27;20406;-68
2022/10/17 18:45:14;;;;;;;38.42;34.33;;;;;;;15.31;99.95;100779.75;10627529;27;20047;-68
2022/10/17 18:50:16;;;;;;;39.95;35.63;;;;;;;15.24;100.00;100772.13;10609319;27;20038;-68
2022/10/17 18:55:19;;;;;;;39.42;35.30;;;;;;;15.48;99.88;100770.28;10627715;27;20438;-68
2022/10/17 19:00:21;;;;;;;38.28;34.35;;;;;;;15.26;100.00;100765.84;10627771;27;20512;-68
2022/10/17 19:05:22;;;;;;;39.15;34.97;;;;;;;15.23;100.00;100779.22;10627889;27;20365;-68
2022/10/17 19:10:24;;;;;;;38.55;34.83;;;;;;;15.07;100.00;100773.63;10627599;27;20043;-68
2022/10/17 19:15:26;;;;;;;39.00;34.92;;;;;;;15.06;100.00;100773.72;10627106;27;20043;-68
2022/10/17 19:20:27;;;;;;;40.03;36.13;;;;;;;14.97;100.00;100774.06;10637305;27;20039;-68
2022/10/17 19:25:29;;;;;;;35.83;32.20;;;;;;;14.95;100.00;100784.69;10640339;27;20047;-69
2022/10/17 19:30:31;;;;;;;37.38;33.22;;;;;;;14.99;100.00;100786.31;10641696;27;20583;-68
2022/10/17 19:35:33;;;;;;;40.90;36.55;;;;;;;14.83;100.00;100788.69;10641776;27;20039;-69
2022/10/17 19:40:39;;;;;;;42.63;36.10;;;;;;;14.82;100.00;100800.16;10642388;27;20099;-69
2022/10/17 19:45:41;;;;;;;43.50;34.47;;;;;;;14.72;100.00;100792.63;10640354;27;20043;-70
2022/10/17 19:50:43;;;;;;;40.95;36.60;;;;;;;14.78;100.00;100795.03;10621829;27;20043;-68
2022/10/17 19:55:45;;;;;;;40.22;34.92;;;;;;;14.87;100.00;100802.63;10621408;27;20114;-69
2022/10/17 20:00:53;;;;;;;40.42;35.88;;;;;;;15.00;100.00;100803.03;10640110;27;20381;-68
2022/10/17 20:05:55;;;;;;;39.28;35.17;;;;;;;14.75;100.00;100813.72;10641122;27;20403;-69
2022/10/17 20:11:01;;;;;;;40.78;34.58;;;;;;;14.53;100.00;100813.63;10642716;27;20043;-68
2022/10/17 20:16:04;;;;;;;39.08;35.17;;;;;;;14.68;100.00;100822.78;10641198;27;20035;-68
2022/10/17 20:21:09;;;;;;;36.70;32.92;;;;;;;14.56;100.00;100822.28;10640345;27;20092;-69
2022/10/17 20:26:18;;;;;;;39.22;34.00;;;;;;;14.44;100.00;100827.13;10641290;27;20039;-69
2022/10/17 20:31:41;;;;;;;37.60;33.72;;;;;;;14.33;100.00;100830.13;10636567;27;20067;-68
2022/10/17 20:36:43;;;;;;;37.40;33.67;;;;;;;14.23;100.00;100831.38;10634329;27;20047;-70
2022/10/17 20:41:46;;;;;;;37.90;34.10;;;;;;;14.13;100.00;100831.69;10615408;27;20047;-68
2022/10/17 20:46:47;;;;;;;40.42;35.35;;;;;;;13.97;100.00;100835.75;10614879;27;20454;-69
2022/10/17 20:52:02;;;;;;;37.08;33.58;;;;;;;13.87;100.00;100842.25;10634002;27;20039;-68
2022/10/17 20:57:05;;;;;;;38.28;34.45;;;;;;;14.00;100.00;100835.66;10633030;27;20080;-69
2022/10/17 21:02:10;;;;;;;38.67;34.50;;;;;;;14.19;100.00;100829.75;10633156;27;20047;-68
2022/10/17 21:07:12;;;;;;;39.13;33.28;;;;;;;14.22;100.00;100838.44;10632919;27;20035;-69
2022/10/17 21:12:14;;;;;;;39.00;35.28;;;;;;;14.60;100.00;100834.47;10631551;27;20062;-69
2022/10/17 21:17:31;;;;;;;40.10;34.85;;;;;;;14.69;100.00;100829.78;10598770;27;20047;-69
2022/10/17 21:22:33;;;;;;;37.90;34.03;;;;;;;14.92;100.00;100839.53;10612392;27;20043;-69
2022/10/17 21:27:35;;;;;;;40.63;34.60;;;;;;;14.66;100.00;100841.38;10628834;27;20511;-69
2022/10/17 21:32:36;;;;;;;36.95;33.28;;;;;;;14.69;100.00;100835.94;10629117;27;20050;-69
2022/10/17 21:37:52;;;;;;;41.75;35.92;;;;;;;14.99;100.00;100830.44;10629308;27;20093;-69
2022/10/17 21:42:53;;;;;;;38.70;34.72;;;;;;;14.96;100.00;100831.41;10610619;27;20031;-69
2022/10/17 21:47:55;;;;;;;37.83;33.92;;;;;;;14.68;100.00;100828.94;10628780;27;20100;-69
2022/10/17 21:53:14;;;;;;;43.33;37.17;;;;;;;14.55;100.00;100839.06;10628227;27;20100;-69
2022/10/17 21:58:15;;;;;;;38.47;34.50;;;;;;;14.51;100.00;100834.81;10610631;27;20078;-69
2022/10/17 22:03:17;;;;;;;42.40;37.15;;;;;;;14.53;100.00;100838.28;10610685;27;20050;-69
2022/10/17 22:08:18;;;;;;;43.38;37.50;;;;;;;14.44;100.00;100840.38;10629356;27;20046;-69
2022/10/17 22:13:20;;;;;;;52.22;40.22;;;;;;;14.65;100.00;100847.53;10627305;27;20076;-69
2022/10/17 22:18:21;;;;;;;42.47;35.67;;;;;;;14.51;100.00;100849.81;10627861;27;20039;-69
2022/10/17 22:23:24;;;;;;;39.08;35.05;;;;;;;14.52;100.00;100848.91;10627563;27;20523;-69
2022/10/17 22:28:26;;;;;;;43.40;35.35;;;;;;;14.17;100.00;100855.41;10607834;22;20066;-70
2022/10/17 22:33:31;;;;;;;46.13;37.15;;;;;;;13.95;100.00;100857.88;10626052;27;20457;-71
2022/10/17 22:38:33;;;;;;;48.45;35.97;;;;;;;13.77;100.00;100861.97;10607567;27;20054;-70
2022/10/17 22:43:35;;;;;;;47.03;39.08;;;;;;;13.53;100.00;100861.81;10625383;27;20158;-70
2022/10/17 22:48:37;;;;;;;46.97;39.40;;;;;;;13.61;100.00;100873.00;10625048;27;20043;-70
2022/10/17 22:53:38;;;;;;;44.55;38.95;;;;;;;13.81;100.00;100859.19;10624364;27;20088;-70